Time;durP1;ratioP1;P1;durP2;ratioP2;P2;SDS_P1;SDS_P2;PMS_P1;PMS_P2;Temp;Humidity;BMP_temperature;BMP_pressure;BME280_temperature;BME280_humidity;BME280_pressure;Samples;Min_cycle;Max_cycle;Signal;HPM_P1;HPM_P2
2024/01/10 00:01:46;;;;;;;0.40;0.40;;;;;;;;;;5069988;28;20261;-82
2024/01/10 00:04:11;;;;;;;1.65;1.15;;;;;;;;;;5071139;28;20059;-81
2024/01/10 00:06:37;;;;;;;1.70;1.60;;;;;;;;;;5072840;28;20063;-81
2024/01/10 00:09:02;;;;;;;0.60;0.60;;;;;;;;;;5073190;28;20031;-81
2024/01/10 00:11:28;;;;;;;1.70;1.52;;;;;;;;;;5072702;28;20028;-81
2024/01/10 00:13:59;;;;;;;0.82;0.82;;;;;;;;;;5072254;28;20424;-81
2024/01/10 00:16:25;;;;;;;2.70;1.75;;;;;;;;;;5072633;28;20163;-82
2024/01/10 00:18:50;;;;;;;3.65;2.60;;;;;;;;;;5070348;28;20044;-82
2024/01/10 00:21:16;;;;;;;0.45;0.45;;;;;;;;;;5068170;28;20040;-82
2024/01/10 00:23:41;;;;;;;2.80;1.25;;;;;;;;;;5071385;28;20085;-82
2024/01/10 00:26:07;;;;;;;1.17;0.73;;;;;;;;;;5071278;28;20121;-81
2024/01/10 00:28:32;;;;;;;0.40;0.40;;;;;;;;;;5070480;28;20042;-81
2024/01/10 00:31:01;;;;;;;0.50;0.50;;;;;;;;;;5070023;28;20039;-81
2024/01/10 00:33:26;;;;;;;0.50;0.50;;;;;;;;;;5073678;28;20020;-81
2024/01/10 00:35:51;;;;;;;2.13;1.48;;;;;;;;;;5075764;28;20032;-83
2024/01/10 00:38:17;;;;;;;1.25;1.20;;;;;;;;;;5071650;28;20754;-82
2024/01/10 00:40:42;;;;;;;1.05;1.05;;;;;;;;;;5073990;28;20032;-82
2024/01/10 00:43:08;;;;;;;0.88;0.88;;;;;;;;;;5056707;28;20058;-80
2024/01/10 00:45:34;;;;;;;0.60;0.60;;;;;;;;;;5074270;28;20017;-80
2024/01/10 00:47:59;;;;;;;1.33;1.23;;;;;;;;;;5058273;28;22030;-81
2024/01/10 00:50:25;;;;;;;1.10;0.65;;;;;;;;;;5053505;28;20025;-81
2024/01/10 00:52:54;;;;;;;1.00;0.93;;;;;;;;;;5070425;28;20025;-82
2024/01/10 00:55:19;;;;;;;4.07;1.08;;;;;;;;;;5052063;28;20032;-82
2024/01/10 00:57:45;;;;;;;0.52;0.52;;;;;;;;;;5072961;28;20039;-82
2024/01/10 01:00:11;;;;;;;0.80;0.80;;;;;;;;;;5070618;28;20082;-81
2024/01/10 01:02:39;;;;;;;0.60;0.60;;;;;;;;;;5071404;28;20024;-81
2024/01/10 01:05:07;;;;;;;2.28;1.10;;;;;;;;;;5069823;28;20099;-82
2024/01/10 01:07:36;;;;;;;1.33;1.23;;;;;;;;;;5053894;28;20033;-84
2024/01/10 01:10:05;;;;;;;0.85;0.85;;;;;;;;;;5069689;28;20032;-83
2024/01/10 01:12:31;;;;;;;1.75;0.90;;;;;;;;;;5071425;28;20028;-81
2024/01/10 01:14:56;;;;;;;0.60;0.60;;;;;;;;;;5071226;28;20036;-82
2024/01/10 01:17:25;;;;;;;0.40;0.40;;;;;;;;;;5073423;28;20039;-81
2024/01/10 01:19:50;;;;;;;1.00;1.00;;;;;;;;;;5068927;28;20064;-83
2024/01/10 01:22:16;;;;;;;0.43;0.43;;;;;;;;;;5072472;28;20058;-82
2024/01/10 01:24:41;;;;;;;2.17;1.75;;;;;;;;;;5072313;28;20155;-82
2024/01/10 01:27:06;;;;;;;0.60;0.60;;;;;;;;;;5070296;28;20058;-81
2024/01/10 01:29:32;;;;;;;1.25;1.15;;;;;;;;;;5071152;28;20467;-82
2024/01/10 01:31:57;;;;;;;0.57;0.57;;;;;;;;;;5069384;28;20035;-81
2024/01/10 01:34:23;;;;;;;0.50;0.50;;;;;;;;;;5070175;28;20585;-82
2024/01/10 01:36:51;;;;;;;2.17;1.15;;;;;;;;;;5055929;28;20028;-82
2024/01/10 01:39:16;;;;;;;1.38;1.08;;;;;;;;;;5068370;28;20448;-83
2024/01/10 01:41:41;;;;;;;0.50;0.50;;;;;;;;;;5071694;28;20044;-81
2024/01/10 01:44:07;;;;;;;1.42;1.25;;;;;;;;;;5067718;28;20031;-82
2024/01/10 01:46:33;;;;;;;0.77;0.77;;;;;;;;;;5069641;28;20060;-81
2024/01/10 01:48:59;;;;;;;1.40;1.35;;;;;;;;;;5071381;28;20390;-81
2024/01/10 01:51:28;;;;;;;5.75;0.95;;;;;;;;;;5068515;28;20032;-80
2024/01/10 01:53:53;;;;;;;1.30;1.23;;;;;;;;;;5054061;28;20036;-80
2024/01/10 01:56:20;;;;;;;2.00;1.80;;;;;;;;;;5069304;28;20043;-81
2024/01/10 01:58:46;;;;;;;5.50;2.28;;;;;;;;;;5049490;28;20035;-82
2024/01/10 02:01:12;;;;;;;0.32;0.32;;;;;;;;;;5067659;28;20039;-81
2024/01/10 02:03:37;;;;;;;0.63;0.63;;;;;;;;;;5054566;28;20036;-82
2024/01/10 02:06:06;;;;;;;0.85;0.57;;;;;;;;;;5068109;28;20465;-80
2024/01/10 02:08:33;;;;;;;0.57;0.57;;;;;;;;;;5066932;28;20043;-81
2024/01/10 02:11:02;;;;;;;0.82;0.82;;;;;;;;;;5067790;28;20105;-82
2024/01/10 02:13:29;;;;;;;1.38;1.00;;;;;;;;;;5065132;28;20456;-80
2024/01/10 02:15:58;;;;;;;0.70;0.70;;;;;;;;;;5064827;28;20043;-81
2024/01/10 02:18:23;;;;;;;0.60;0.60;;;;;;;;;;5066762;28;20449;-81
2024/01/10 02:20:50;;;;;;;0.95;0.93;;;;;;;;;;5070384;28;20104;-81
2024/01/10 02:23:15;;;;;;;0.93;0.93;;;;;;;;;;5068902;28;20039;-81
2024/01/10 02:25:41;;;;;;;1.20;0.95;;;;;;;;;;5053482;28;20107;-82
2024/01/10 02:28:07;;;;;;;0.60;0.60;;;;;;;;;;5068792;28;20032;-81
2024/01/10 02:30:33;;;;;;;0.70;0.70;;;;;;;;;;5050048;28;20024;-82
2024/01/10 02:32:59;;;;;;;1.80;1.10;;;;;;;;;;5068347;28;20480;-83
2024/01/10 02:35:24;;;;;;;1.60;1.50;;;;;;;;;;5069113;28;20024;-82
2024/01/10 02:37:51;;;;;;;0.85;0.85;;;;;;;;;;5070230;28;20036;-83
2024/01/10 02:40:17;;;;;;;1.02;0.93;;;;;;;;;;5067581;28;20052;-82
2024/01/10 02:42:42;;;;;;;1.10;1.10;;;;;;;;;;5051055;28;20075;-83
2024/01/10 02:45:08;;;;;;;0.28;0.28;;;;;;;;;;5069247;28;20024;-83
2024/01/10 02:47:34;;;;;;;0.60;0.60;;;;;;;;;;5069430;28;20161;-81
2024/01/10 02:50:00;;;;;;;0.73;0.63;;;;;;;;;;5066730;28;20131;-82
2024/01/10 02:52:25;;;;;;;0.65;0.65;;;;;;;;;;5058063;28;20150;-83
2024/01/10 02:54:51;;;;;;;1.70;1.60;;;;;;;;;;5075203;28;20063;-85
2024/01/10 02:57:16;;;;;;;1.08;1.00;;;;;;;;;;5073749;28;20032;-83
2024/01/10 02:59:42;;;;;;;0.77;0.77;;;;;;;;;;5075084;28;20032;-84
2024/01/10 03:02:07;;;;;;;0.40;0.40;;;;;;;;;;5074777;28;20020;-84
2024/01/10 03:04:36;;;;;;;0.80;0.80;;;;;;;;;;5074391;28;20767;-83
2024/01/10 03:07:01;;;;;;;0.35;0.35;;;;;;;;;;5075181;28;20427;-84
2024/01/10 03:09:27;;;;;;;0.57;0.57;;;;;;;;;;5071369;28;20135;-81
2024/01/10 03:11:54;;;;;;;1.35;0.98;;;;;;;;;;5072198;28;20038;-82
2024/01/10 03:14:20;;;;;;;2.05;1.85;;;;;;;;;;5074328;28;20034;-83
2024/01/10 03:16:45;;;;;;;0.70;0.70;;;;;;;;;;5071431;28;20024;-84
2024/01/10 03:19:11;;;;;;;0.50;0.50;;;;;;;;;;5072810;28;20044;-84
2024/01/10 03:21:36;;;;;;;0.45;0.45;;;;;;;;;;5072509;28;20095;-84
2024/01/10 03:24:05;;;;;;;0.50;0.50;;;;;;;;;;5073905;28;20480;-82
2024/01/10 03:26:31;;;;;;;0.77;0.77;;;;;;;;;;5054152;28;20040;-82
2024/01/10 03:28:57;;;;;;;0.77;0.77;;;;;;;;;;5072207;28;20065;-82
2024/01/10 03:31:23;;;;;;;0.90;0.90;;;;;;;;;;5070770;28;20024;-82
2024/01/10 03:33:49;;;;;;;0.45;0.45;;;;;;;;;;5071247;28;20029;-81
2024/01/10 03:36:18;;;;;;;0.20;0.20;;;;;;;;;;5052887;28;20021;-83
2024/01/10 03:38:44;;;;;;;4.88;1.27;;;;;;;;;;5070503;28;20451;-82
2024/01/10 03:41:20;;;;;;;1.48;0.77;;;;;;;;;;5071503;28;20024;-83
2024/01/10 03:43:46;;;;;;;0.88;0.88;;;;;;;;;;5051153;28;20024;-83
2024/01/10 03:46:14;;;;;;;5.35;1.23;;;;;;;;;;5071046;28;20107;-83
2024/01/10 03:48:47;;;;;;;1.38;1.35;;;;;;;;;;5070873;28;20028;-80
2024/01/10 03:51:13;;;;;;;3.60;2.05;;;;;;;;;;5072093;28;20066;-84
2024/01/10 03:53:40;;;;;;;1.75;1.65;;;;;;;;;;5054330;28;20028;-84
2024/01/10 03:56:06;;;;;;;1.38;1.02;;;;;;;;;;5054365;28;20081;-82
2024/01/10 03:58:31;;;;;;;3.55;3.25;;;;;;;;;;5070223;28;20034;-82
2024/01/10 04:00:57;;;;;;;2.13;1.92;;;;;;;;;;5071275;28;20017;-82
2024/01/10 04:03:22;;;;;;;8.75;2.53;;;;;;;;;;5071311;28;20032;-84
2024/01/10 04:05:48;;;;;;;2.20;2.00;;;;;;;;;;5053460;28;20024;-83
2024/01/10 04:08:21;;;;;;;1.02;1.02;;;;;;;;;;5055627;28;20063;-82
2024/01/10 04:10:46;;;;;;;0.82;0.82;;;;;;;;;;5069064;28;20070;-82
2024/01/10 04:13:17;;;;;;;1.23;1.23;;;;;;;;;;5053143;28;20032;-83
2024/01/10 04:15:42;;;;;;;2.95;1.15;;;;;;;;;;5067551;28;20366;-82
2024/01/10 04:18:08;;;;;;;1.35;1.27;;;;;;;;;;5069171;28;20036;-82
2024/01/10 04:20:36;;;;;;;1.75;1.45;;;;;;;;;;5072427;28;20035;-83
2024/01/10 04:23:07;;;;;;;0.73;0.73;;;;;;;;;;5072961;28;20021;-84
2024/01/10 04:25:35;;;;;;;0.55;0.55;;;;;;;;;;5070528;28;20025;-83
2024/01/10 04:28:01;;;;;;;1.05;1.05;;;;;;;;;;5071279;28;20016;-82
2024/01/10 04:30:27;;;;;;;0.63;0.63;;;;;;;;;;5069974;28;20031;-82
2024/01/10 04:32:52;;;;;;;0.55;0.55;;;;;;;;;;5073631;28;20107;-83
2024/01/10 04:35:18;;;;;;;1.02;1.02;;;;;;;;;;5054923;28;20381;-84
2024/01/10 04:37:43;;;;;;;0.80;0.80;;;;;;;;;;5072023;28;20106;-83
2024/01/10 04:40:09;;;;;;;0.98;0.80;;;;;;;;;;5071094;28;20028;-82
2024/01/10 04:42:35;;;;;;;2.08;1.95;;;;;;;;;;5071126;28;20031;-82
2024/01/10 04:45:00;;;;;;;0.63;0.60;;;;;;;;;;5073586;28;20020;-82
2024/01/10 04:47:26;;;;;;;1.60;1.50;;;;;;;;;;5069684;28;20170;-82
2024/01/10 04:49:51;;;;;;;0.70;0.68;;;;;;;;;;5071634;28;20032;-82
2024/01/10 04:52:16;;;;;;;4.50;0.80;;;;;;;;;;5069283;28;20123;-81
2024/01/10 04:54:42;;;;;;;1.65;1.55;;;;;;;;;;5071505;28;20027;-81
2024/01/10 04:57:07;;;;;;;7.38;2.03;;;;;;;;;;5052745;28;20035;-81
2024/01/10 04:59:33;;;;;;;3.38;3.10;;;;;;;;;;5069648;28;20024;-81
2024/01/10 05:01:59;;;;;;;4.50;3.65;;;;;;;;;;5076431;28;20103;-86
2024/01/10 05:04:24;;;;;;;5.57;3.65;;;;;;;;;;5078661;28;20047;-84
2024/01/10 05:06:52;;;;;;;1.10;1.10;;;;;;;;;;5073010;28;20078;-83
2024/01/10 05:09:18;;;;;;;1.08;0.98;;;;;;;;;;5070205;28;20468;-81
2024/01/10 05:11:47;;;;;;;1.15;1.05;;;;;;;;;;5068965;28;20044;-82
2024/01/10 05:14:12;;;;;;;1.02;1.02;;;;;;;;;;5051185;28;20482;-82
2024/01/10 05:16:38;;;;;;;0.70;0.70;;;;;;;;;;5068851;28;20028;-81
2024/01/10 05:19:03;;;;;;;3.63;2.38;;;;;;;;;;5063910;28;20044;-82
2024/01/10 05:21:30;;;;;;;7.95;1.83;;;;;;;;;;5052885;28;20029;-80
2024/01/10 05:23:56;;;;;;;2.72;1.42;;;;;;;;;;5052857;28;20036;-81
2024/01/10 05:26:24;;;;;;;1.02;0.90;;;;;;;;;;5070526;28;20081;-80
2024/01/10 05:28:49;;;;;;;3.00;2.00;;;;;;;;;;5069376;28;20530;-78
2024/01/10 05:31:15;;;;;;;2.55;1.73;;;;;;;;;;5067003;28;20028;-80
2024/01/10 05:33:42;;;;;;;0.40;0.40;;;;;;;;;;5069374;28;20029;-79
2024/01/10 05:36:13;;;;;;;2.20;1.50;;;;;;;;;;5066497;28;20325;-80
2024/01/10 05:38:40;;;;;;;5.72;1.65;;;;;;;;;;5068367;28;20093;-79
2024/01/10 05:41:05;;;;;;;0.55;0.55;;;;;;;;;;5069038;28;20025;-80
2024/01/10 05:43:31;;;;;;;0.80;0.80;;;;;;;;;;5052889;28;20411;-80
2024/01/10 05:45:57;;;;;;;0.95;0.95;;;;;;;;;;5068517;28;20410;-80
2024/01/10 05:48:22;;;;;;;1.15;1.15;;;;;;;;;;5067784;28;20574;-79
2024/01/10 05:50:47;;;;;;;1.52;1.42;;;;;;;;;;5068096;28;20020;-79
2024/01/10 05:53:16;;;;;;;0.38;0.38;;;;;;;;;;5067639;28;20029;-79
2024/01/10 05:55:45;;;;;;;0.73;0.73;;;;;;;;;;5069023;28;20113;-79
2024/01/10 05:58:11;;;;;;;1.50;1.40;;;;;;;;;;5067986;28;20043;-80
2024/01/10 06:00:37;;;;;;;0.65;0.65;;;;;;;;;;5068942;28;20364;-80
2024/01/10 06:03:02;;;;;;;1.08;1.05;;;;;;;;;;5068862;28;20020;-80
2024/01/10 06:05:27;;;;;;;0.28;0.28;;;;;;;;;;5069205;28;20151;-80
2024/01/10 06:07:53;;;;;;;0.65;0.65;;;;;;;;;;5068219;28;20033;-80
2024/01/10 06:10:19;;;;;;;0.77;0.77;;;;;;;;;;5066286;28;20028;-80
2024/01/10 06:12:44;;;;;;;1.25;0.68;;;;;;;;;;5068545;28;20041;-80
2024/01/10 06:15:10;;;;;;;0.70;0.70;;;;;;;;;;5068730;28;20024;-80
2024/01/10 06:17:36;;;;;;;0.93;0.93;;;;;;;;;;5065055;28;20182;-79
2024/01/10 06:20:06;;;;;;;2.35;1.25;;;;;;;;;;5067759;28;20045;-79
2024/01/10 06:22:32;;;;;;;0.85;0.85;;;;;;;;;;5066457;28;20020;-79
2024/01/10 06:24:58;;;;;;;1.42;1.02;;;;;;;;;;5068965;28;20028;-80
2024/01/10 06:27:23;;;;;;;1.38;1.27;;;;;;;;;;5073818;28;20036;-80
2024/01/10 06:29:49;;;;;;;1.17;1.13;;;;;;;;;;5072647;28;20034;-80
2024/01/10 06:32:14;;;;;;;1.35;1.30;;;;;;;;;;5074515;28;20040;-80
2024/01/10 06:34:40;;;;;;;1.60;1.27;;;;;;;;;;5073667;28;20025;-81
2024/01/10 06:37:07;;;;;;;1.05;0.95;;;;;;;;;;5075018;28;20028;-80
2024/01/10 06:39:33;;;;;;;1.17;1.08;;;;;;;;;;5073433;28;20032;-81
2024/01/10 06:41:58;;;;;;;1.35;1.25;;;;;;;;;;5054968;28;20119;-80
2024/01/10 06:44:24;;;;;;;1.50;1.40;;;;;;;;;;5053299;28;20032;-79
2024/01/10 06:46:50;;;;;;;2.20;1.63;;;;;;;;;;5073595;28;20036;-81
2024/01/10 06:49:16;;;;;;;1.00;1.00;;;;;;;;;;5072300;28;20074;-80
2024/01/10 06:51:41;;;;;;;2.83;2.30;;;;;;;;;;5070692;28;20029;-79
2024/01/10 06:54:07;;;;;;;0.73;0.73;;;;;;;;;;5073290;28;20029;-79
2024/01/10 06:56:33;;;;;;;3.55;1.30;;;;;;;;;;5072789;28;20506;-78
2024/01/10 06:59:00;;;;;;;0.68;0.68;;;;;;;;;;5072711;28;20536;-80
2024/01/10 07:01:26;;;;;;;1.58;1.27;;;;;;;;;;5070401;28;20080;-78
2024/01/10 07:03:52;;;;;;;1.13;1.13;;;;;;;;;;5074006;28;20059;-80
2024/01/10 07:06:18;;;;;;;0.28;0.28;;;;;;;;;;5055106;28;20043;-80
2024/01/10 07:08:47;;;;;;;0.60;0.60;;;;;;;;;;5055731;28;20028;-80
2024/01/10 07:11:12;;;;;;;3.05;2.05;;;;;;;;;;5057464;28;20079;-80
2024/01/10 07:13:38;;;;;;;2.83;1.58;;;;;;;;;;5075382;28;20404;-79
2024/01/10 07:16:04;;;;;;;1.17;0.82;;;;;;;;;;5079163;28;20028;-79
2024/01/10 07:18:30;;;;;;;0.47;0.47;;;;;;;;;;5075833;28;20063;-79
2024/01/10 07:20:55;;;;;;;1.20;0.77;;;;;;;;;;5076981;28;20471;-80
2024/01/10 07:23:22;;;;;;;0.40;0.40;;;;;;;;;;5076779;28;20035;-80
2024/01/10 07:25:48;;;;;;;0.77;0.65;;;;;;;;;;5058995;28;20027;-79
2024/01/10 07:28:14;;;;;;;1.15;1.15;;;;;;;;;;5055304;28;20044;-79
2024/01/10 07:30:39;;;;;;;1.25;1.13;;;;;;;;;;5073532;28;20058;-82
2024/01/10 07:33:04;;;;;;;2.22;1.20;;;;;;;;;;5072944;28;20021;-80
2024/01/10 07:35:30;;;;;;;1.20;1.20;;;;;;;;;;5075620;28;20027;-79
2024/01/10 07:37:56;;;;;;;1.20;1.10;;;;;;;;;;5074648;28;20418;-79
2024/01/10 07:40:22;;;;;;;0.30;0.30;;;;;;;;;;5075428;28;20028;-80
2024/01/10 07:42:48;;;;;;;0.35;0.35;;;;;;;;;;5074842;28;20021;-81
2024/01/10 07:45:13;;;;;;;3.17;2.97;;;;;;;;;;5074912;28;20036;-80
2024/01/10 07:47:38;;;;;;;1.40;1.30;;;;;;;;;;5073821;28;20017;-80
2024/01/10 07:50:08;;;;;;;1.63;1.52;;;;;;;;;;5074282;28;20153;-79
2024/01/10 07:52:34;;;;;;;0.52;0.52;;;;;;;;;;5074112;28;20032;-79
2024/01/10 07:55:00;;;;;;;0.98;0.98;;;;;;;;;;5071100;28;20032;-79
2024/01/10 07:57:26;;;;;;;2.70;2.50;;;;;;;;;;5074035;28;20059;-78
2024/01/10 07:59:52;;;;;;;1.40;1.17;;;;;;;;;;5072725;28;20032;-79
2024/01/10 08:02:18;;;;;;;8.60;1.27;;;;;;;;;;5074235;28;20055;-78
2024/01/10 08:04:43;;;;;;;0.68;0.68;;;;;;;;;;5075414;28;20029;-86
2024/01/10 08:07:11;;;;;;;0.52;0.52;;;;;;;;;;5072971;28;20032;-82
2024/01/10 08:09:37;;;;;;;0.40;0.40;;;;;;;;;;5075314;28;20028;-85
2024/01/10 08:12:03;;;;;;;2.22;2.08;;;;;;;;;;5076726;28;20024;-86
2024/01/10 08:14:29;;;;;;;1.90;1.77;;;;;;;;;;5074354;28;20078;-79
2024/01/10 08:16:57;;;;;;;0.50;0.50;;;;;;;;;;5073979;28;20035;-78
2024/01/10 08:19:23;;;;;;;0.28;0.28;;;;;;;;;;5071501;28;20048;-79
2024/01/10 08:21:50;;;;;;;2.00;0.77;;;;;;;;;;5070965;28;20024;-79
2024/01/10 08:24:15;;;;;;;0.93;0.90;;;;;;;;;;5071927;28;20043;-79
2024/01/10 08:26:41;;;;;;;0.88;0.88;;;;;;;;;;5070135;28;20451;-78
2024/01/10 08:29:06;;;;;;;0.47;0.47;;;;;;;;;;5070104;28;20085;-78
2024/01/10 08:31:32;;;;;;;0.95;0.95;;;;;;;;;;5051001;28;20029;-78
2024/01/10 08:33:57;;;;;;;3.20;1.40;;;;;;;;;;5071449;28;20427;-79
2024/01/10 08:36:24;;;;;;;1.30;1.25;;;;;;;;;;5070143;28;20055;-78
2024/01/10 08:38:50;;;;;;;0.32;0.32;;;;;;;;;;5052733;28;20020;-78
2024/01/10 08:41:15;;;;;;;0.98;0.98;;;;;;;;;;5071455;28;20017;-79
2024/01/10 08:43:41;;;;;;;0.75;0.75;;;;;;;;;;5069528;28;20494;-79
2024/01/10 08:46:10;;;;;;;1.48;0.82;;;;;;;;;;5052349;28;20036;-79
2024/01/10 08:48:36;;;;;;;0.60;0.60;;;;;;;;;;5051734;28;20028;-79
2024/01/10 08:51:02;;;;;;;1.20;0.85;;;;;;;;;;5068817;28;20537;-79
2024/01/10 08:53:28;;;;;;;1.27;1.27;;;;;;;;;;5070121;28;20029;-79
2024/01/10 08:55:53;;;;;;;1.10;1.10;;;;;;;;;;5070643;28;20023;-78
2024/01/10 08:58:19;;;;;;;1.83;1.73;;;;;;;;;;5070090;28;20028;-79
2024/01/10 09:00:44;;;;;;;1.75;1.45;;;;;;;;;;5069341;28;20515;-80
2024/01/10 09:03:09;;;;;;;1.52;1.42;;;;;;;;;;5067916;28;20035;-79
2024/01/10 09:05:35;;;;;;;0.50;0.50;;;;;;;;;;5068250;28;20025;-79
2024/01/10 09:08:00;;;;;;;1.13;1.02;;;;;;;;;;5066339;28;20032;-80
2024/01/10 09:10:27;;;;;;;0.68;0.68;;;;;;;;;;5069394;28;20111;-80
2024/01/10 09:12:53;;;;;;;1.05;0.95;;;;;;;;;;5069878;28;20372;-79
2024/01/10 09:15:19;;;;;;;0.88;0.88;;;;;;;;;;5051551;28;20032;-80
2024/01/10 09:17:45;;;;;;;0.70;0.70;;;;;;;;;;5069066;28;20107;-79
2024/01/10 09:20:12;;;;;;;0.80;0.80;;;;;;;;;;5051372;28;20048;-79
2024/01/10 09:22:38;;;;;;;0.85;0.85;;;;;;;;;;5069746;28;20029;-79
2024/01/10 09:25:05;;;;;;;1.33;1.17;;;;;;;;;;5068445;28;20035;-79
2024/01/10 09:27:32;;;;;;;0.73;0.73;;;;;;;;;;5069602;28;20118;-80
2024/01/10 09:30:03;;;;;;;1.02;0.98;;;;;;;;;;5051386;28;20105;-79
2024/01/10 09:32:29;;;;;;;1.30;1.00;;;;;;;;;;5068258;28;20056;-80
2024/01/10 09:34:55;;;;;;;1.15;0.85;;;;;;;;;;5068812;28;20028;-80
2024/01/10 09:37:21;;;;;;;0.57;0.57;;;;;;;;;;5069283;28;20040;-80
2024/01/10 09:39:46;;;;;;;0.45;0.45;;;;;;;;;;5069281;28;20758;-79
2024/01/10 09:42:11;;;;;;;0.65;0.65;;;;;;;;;;5069215;28;20472;-80
2024/01/10 09:44:37;;;;;;;2.47;2.05;;;;;;;;;;5069329;28;20028;-80
2024/01/10 09:47:03;;;;;;;0.70;0.70;;;;;;;;;;5069066;28;20388;-80
2024/01/10 09:49:29;;;;;;;0.63;0.63;;;;;;;;;;5069037;28;20036;-79
2024/01/10 09:52:01;;;;;;;0.30;0.30;;;;;;;;;;5068254;28;20021;-80
2024/01/10 09:54:29;;;;;;;1.60;1.50;;;;;;;;;;5069236;28;20490;-80
2024/01/10 09:56:55;;;;;;;1.02;0.93;;;;;;;;;;5069026;28;20031;-81
2024/01/10 09:59:21;;;;;;;0.75;0.70;;;;;;;;;;5069067;28;20024;-80
2024/01/10 10:01:46;;;;;;;1.73;1.02;;;;;;;;;;5067272;28;20035;-80
2024/01/10 10:04:12;;;;;;;1.02;1.00;;;;;;;;;;5068942;28;20361;-80
2024/01/10 10:06:39;;;;;;;0.60;0.57;;;;;;;;;;5067341;28;20044;-80
2024/01/10 10:09:07;;;;;;;1.55;1.45;;;;;;;;;;5068883;28;20032;-81
2024/01/10 10:11:32;;;;;;;0.98;0.98;;;;;;;;;;5068966;28;20125;-80
2024/01/10 10:14:14;;;;;;;1.70;1.60;;;;;;;;;;5066114;28;20036;-80
2024/01/10 10:16:41;;;;;;;1.15;1.13;;;;;;;;;;5068684;28;20028;-81
2024/01/10 10:19:06;;;;;;;0.82;0.82;;;;;;;;;;5049790;28;20079;-80
2024/01/10 10:21:33;;;;;;;3.70;1.70;;;;;;;;;;5069037;28;20024;-81
2024/01/10 10:24:00;;;;;;;3.47;1.02;;;;;;;;;;5066484;28;20036;-81
2024/01/10 10:26:31;;;;;;;0.80;0.80;;;;;;;;;;5067540;28;20032;-81
2024/01/10 10:28:57;;;;;;;2.88;1.52;;;;;;;;;;5067414;28;20388;-81
2024/01/10 10:31:23;;;;;;;0.50;0.50;;;;;;;;;;5068049;28;20104;-81
2024/01/10 10:33:52;;;;;;;1.05;0.95;;;;;;;;;;5067304;28;20062;-81
2024/01/10 10:36:19;;;;;;;3.65;2.03;;;;;;;;;;5065348;28;20031;-80
2024/01/10 10:38:47;;;;;;;0.82;0.82;;;;;;;;;;5067169;28;20035;-82
2024/01/10 10:41:14;;;;;;;1.25;1.20;;;;;;;;;;5066734;28;20029;-80
2024/01/10 10:43:40;;;;;;;6.03;1.95;;;;;;;;;;5049833;28;20067;-81
2024/01/10 10:46:07;;;;;;;0.60;0.60;;;;;;;;;;5068698;28;20035;-81
2024/01/10 10:48:38;;;;;;;1.00;1.00;;;;;;;;;;5068572;28;20071;-81
2024/01/10 10:51:07;;;;;;;1.40;1.30;;;;;;;;;;5066813;28;20074;-81
2024/01/10 10:53:37;;;;;;;2.85;1.88;;;;;;;;;;5068116;28;20066;-81
2024/01/10 10:56:07;;;;;;;1.90;1.25;;;;;;;;;;5066247;28;20064;-81
2024/01/10 10:58:36;;;;;;;;;;;;;;;;;;5068284;28;20032;-80
2024/01/10 11:01:22;;;;;;;0.82;0.82;;;;;;;;;;5068599;28;20280;-83
2024/01/10 11:03:48;;;;;;;1.35;1.25;;;;;;;;;;5069358;28;20025;-79
2024/01/10 11:06:14;;;;;;;0.63;0.63;;;;;;;;;;5068739;28;20028;-81
2024/01/10 11:08:45;;;;;;;1.10;0.68;;;;;;;;;;5066781;28;20109;-80
2024/01/10 11:11:39;;;;;;;1.55;1.25;;;;;;;;;;5065865;28;20471;-80
2024/01/10 11:14:27;;;;;;;0.80;0.80;;;;;;;;;;5068451;28;20576;-80
2024/01/10 11:17:20;;;;;;;0.88;0.88;;;;;;;;;;5071363;28;20089;-81
2024/01/10 11:20:00;;;;;;;2.47;2.25;;;;;;;;;;5070279;28;20052;-82
2024/01/10 11:22:41;;;;;;;0.70;0.70;;;;;;;;;;5069766;28;20044;-81
2024/01/10 11:25:06;;;;;;;1.58;1.48;;;;;;;;;;5070155;28;20028;-80
2024/01/10 11:27:32;;;;;;;1.33;1.23;;;;;;;;;;5071052;28;20032;-81
2024/01/10 11:29:58;;;;;;;1.15;1.05;;;;;;;;;;5070457;28;20024;-82
2024/01/10 11:32:24;;;;;;;2.50;2.30;;;;;;;;;;5070958;28;20028;-80
2024/01/10 11:34:53;;;;;;;1.70;1.52;;;;;;;;;;5050118;28;20109;-79
2024/01/10 11:37:18;;;;;;;1.23;1.13;;;;;;;;;;5070552;28;20105;-81
2024/01/10 11:39:44;;;;;;;1.00;0.80;;;;;;;;;;5071071;28;20411;-82
2024/01/10 11:42:10;;;;;;;2.28;2.08;;;;;;;;;;5070643;28;20077;-83
2024/01/10 11:44:48;;;;;;;1.80;1.67;;;;;;;;;;5069894;28;20051;-82
2024/01/10 11:47:14;;;;;;;0.98;0.98;;;;;;;;;;5071046;28;20028;-81
2024/01/10 11:49:40;;;;;;;0.70;0.70;;;;;;;;;;5070880;28;20028;-80
2024/01/10 11:52:06;;;;;;;1.58;1.35;;;;;;;;;;5070014;28;20033;-81
2024/01/10 11:54:43;;;;;;;2.97;2.72;;;;;;;;;;5070527;28;20029;-80
2024/01/10 11:57:21;;;;;;;1.95;1.20;;;;;;;;;;5071181;28;20089;-79
2024/01/10 11:59:50;;;;;;;1.60;1.50;;;;;;;;;;5069235;28;20081;-80
2024/01/10 12:02:17;;;;;;;9.13;1.73;;;;;;;;;;5069111;28;20023;-79
2024/01/10 12:04:42;;;;;;;1.05;1.02;;;;;;;;;;5070288;28;20025;-82
2024/01/10 12:07:08;;;;;;;2.95;2.05;;;;;;;;;;5070057;28;20095;-82
2024/01/10 12:09:35;;;;;;;1.40;1.30;;;;;;;;;;5069251;28;20129;-81
2024/01/10 12:12:02;;;;;;;1.08;1.02;;;;;;;;;;5051593;28;20494;-82
2024/01/10 12:14:28;;;;;;;1.67;1.15;;;;;;;;;;5069907;28;20199;-80
2024/01/10 12:16:54;;;;;;;3.47;2.50;;;;;;;;;;5070202;28;20119;-81
2024/01/10 12:19:19;;;;;;;1.63;1.52;;;;;;;;;;5069008;28;20635;-80
2024/01/10 12:21:44;;;;;;;2.08;1.27;;;;;;;;;;5050987;28;20107;-81
2024/01/10 12:24:10;;;;;;;1.02;1.00;;;;;;;;;;5069885;28;20039;-80
2024/01/10 12:26:36;;;;;;;1.10;1.08;;;;;;;;;;5069139;28;20029;-81
2024/01/10 12:29:06;;;;;;;2.67;2.35;;;;;;;;;;5071389;28;20031;-80
2024/01/10 12:31:31;;;;;;;1.83;1.67;;;;;;;;;;5070448;28;20021;-81
2024/01/10 12:33:58;;;;;;;2.88;1.27;;;;;;;;;;5071080;28;20032;-80
2024/01/10 12:36:24;;;;;;;1.60;1.23;;;;;;;;;;5068189;28;20027;-79
2024/01/10 12:38:50;;;;;;;3.42;1.13;;;;;;;;;;5071221;28;20476;-82
2024/01/10 12:41:17;;;;;;;2.28;1.55;;;;;;;;;;5070363;28;20032;-81
2024/01/10 12:43:45;;;;;;;5.93;2.97;;;;;;;;;;5054084;28;20081;-80
2024/01/10 12:46:12;;;;;;;1.88;1.33;;;;;;;;;;5070646;28;20034;-81
2024/01/10 12:48:41;;;;;;;1.65;1.55;;;;;;;;;;5071044;28;20024;-81
2024/01/10 12:51:07;;;;;;;2.40;1.90;;;;;;;;;;5070904;28;20026;-80
2024/01/10 12:53:43;;;;;;;2.65;2.35;;;;;;;;;;5068274;28;20032;-79
2024/01/10 12:56:13;;;;;;;2.05;1.95;;;;;;;;;;5070558;28;20078;-80
2024/01/10 12:58:41;;;;;;;3.05;1.50;;;;;;;;;;5070525;28;20032;-80
2024/01/10 13:01:09;;;;;;;7.82;2.28;;;;;;;;;;5069071;28;20086;-80
2024/01/10 13:03:35;;;;;;;1.55;1.45;;;;;;;;;;5067486;28;20059;-79
2024/01/10 13:06:01;;;;;;;6.47;1.58;;;;;;;;;;5070154;28;20032;-79
2024/01/10 13:08:26;;;;;;;2.13;1.35;;;;;;;;;;5067709;28;20056;-79
2024/01/10 13:10:52;;;;;;;2.05;1.75;;;;;;;;;;5069473;28;20066;-79
2024/01/10 13:13:21;;;;;;;1.67;1.20;;;;;;;;;;5069553;28;20031;-78
2024/01/10 13:15:47;;;;;;;2.10;1.92;;;;;;;;;;5069563;28;20102;-79
2024/01/10 13:18:14;;;;;;;1.60;1.50;;;;;;;;;;5068290;28;20453;-79
2024/01/10 13:20:43;;;;;;;3.08;1.58;;;;;;;;;;5069099;28;20036;-78
2024/01/10 13:23:08;;;;;;;2.07;1.90;;;;;;;;;;5069230;28;20047;-79
2024/01/10 13:25:37;;;;;;;2.05;1.55;;;;;;;;;;5069632;28;20280;-79
2024/01/10 13:28:04;;;;;;;1.58;1.48;;;;;;;;;;5069877;28;20107;-79
2024/01/10 13:30:30;;;;;;;2.60;2.35;;;;;;;;;;5069502;28;20421;-78
2024/01/10 13:32:55;;;;;;;3.90;2.63;;;;;;;;;;5069687;28;20115;-78
2024/01/10 13:35:22;;;;;;;2.33;2.10;;;;;;;;;;5067943;28;20029;-80
2024/01/10 13:37:47;;;;;;;3.28;2.92;;;;;;;;;;5051137;28;20492;-79
2024/01/10 13:40:12;;;;;;;1.95;1.85;;;;;;;;;;5068304;28;20035;-80
2024/01/10 13:42:42;;;;;;;2.28;2.03;;;;;;;;;;5069528;28;20166;-78
2024/01/10 13:45:10;;;;;;;;;;;;;;;;;;5070088;28;20028;-80
2024/01/10 13:47:36;;;;;;;1.30;1.15;;;;;;;;;;5069322;28;21471;-79
2024/01/10 13:50:03;;;;;;;1.35;1.13;;;;;;;;;;5069487;28;20042;-79
2024/01/10 13:52:29;;;;;;;3.05;2.47;;;;;;;;;;5067210;28;20040;-80
2024/01/10 13:54:55;;;;;;;2.70;2.08;;;;;;;;;;5068369;28;20032;-80
2024/01/10 13:57:21;;;;;;;0.63;0.63;;;;;;;;;;5069008;28;20082;-80
2024/01/10 13:59:47;;;;;;;2.30;1.90;;;;;;;;;;5069155;28;20338;-79
2024/01/10 14:02:13;;;;;;;2.00;1.67;;;;;;;;;;5049949;28;20067;-79
2024/01/10 14:04:39;;;;;;;3.92;1.40;;;;;;;;;;5068324;28;20036;-79
2024/01/10 14:07:04;;;;;;;1.52;1.42;;;;;;;;;;5068124;28;20354;-80
2024/01/10 14:09:31;;;;;;;3.25;2.95;;;;;;;;;;5069162;28;20032;-80
2024/01/10 14:11:56;;;;;;;1.65;1.55;;;;;;;;;;5068665;28;20024;-80
2024/01/10 14:14:22;;;;;;;2.35;2.15;;;;;;;;;;5067483;28;20032;-79
2024/01/10 14:16:47;;;;;;;1.02;1.02;;;;;;;;;;5069007;28;20031;-79
2024/01/10 14:19:13;;;;;;;2.03;1.92;;;;;;;;;;5068974;28;20040;-79
2024/01/10 14:21:38;;;;;;;3.42;2.63;;;;;;;;;;5066960;28;20358;-80
2024/01/10 14:24:04;;;;;;;1.63;1.52;;;;;;;;;;5049650;28;20033;-79
2024/01/10 14:26:29;;;;;;;1.52;1.42;;;;;;;;;;5068618;28;20032;-80
2024/01/10 14:28:56;;;;;;;0.68;0.68;;;;;;;;;;5068822;28;20028;-79
2024/01/10 14:31:22;;;;;;;12.73;3.30;;;;;;;;;;5068420;28;20036;-79
2024/01/10 14:33:48;;;;;;;1.63;1.52;;;;;;;;;;5068286;28;20154;-79
2024/01/10 14:36:14;;;;;;;2.25;1.98;;;;;;;;;;5067295;28;20532;-78
2024/01/10 14:38:39;;;;;;;1.02;1.00;;;;;;;;;;5067374;28;20119;-79
2024/01/10 14:41:06;;;;;;;5.32;3.28;;;;;;;;;;5049654;28;20487;-80